createdAt,value
2022-11-06T00:00:45.073Z,100698.00
2022-11-06T00:03:12.167Z,100705.88
2022-11-06T00:06:01.443Z,100710.28
2022-11-06T00:08:30.892Z,100713.75
2022-11-06T00:10:57.572Z,100711.97
2022-11-06T00:13:24.602Z,100720.72
2022-11-06T00:15:51.149Z,100710.94
2022-11-06T00:18:17.788Z,100712.72
2022-11-06T00:20:44.459Z,100704.84
2022-11-06T00:23:10.988Z,100699.63
2022-11-06T00:25:40.989Z,100706.69
2022-11-06T00:28:07.520Z,100697.94
2022-11-06T00:30:34.028Z,100704.06
2022-11-06T00:33:00.605Z,100709.28
2022-11-06T00:35:27.124Z,100710.94
2022-11-06T00:37:54.461Z,100710.03
2022-11-06T00:40:20.964Z,100705.50
2022-11-06T00:42:47.502Z,100713.34
2022-11-06T00:45:13.956Z,100708.88
2022-11-06T00:47:40.425Z,100707.91
2022-11-06T00:50:07.413Z,100706.97
2022-11-06T00:52:33.948Z,100699.03
2022-11-06T00:55:00.467Z,100700.75
2022-11-06T00:57:30.053Z,100699.81
2022-11-06T00:59:56.557Z,100684.84
2022-11-06T01:02:23.301Z,100687.50
2022-11-06T01:04:49.905Z,100683.25
2022-11-06T01:07:16.451Z,100678.09
2022-11-06T01:09:43.017Z,100680.97
2022-11-06T01:12:13.908Z,100674.94
2022-11-06T01:14:41.729Z,100695.13
2022-11-06T01:17:08.629Z,100685.50
2022-11-06T01:19:35.118Z,100689.03
2022-11-06T01:22:01.843Z,100694.38
2022-11-06T01:24:29.036Z,100697.13
2022-11-06T01:29:43.175Z,100690.41
2022-11-06T01:32:10.223Z,100688.81
2022-11-06T01:34:36.950Z,100674.00
2022-11-06T01:37:03.618Z,100677.63
2022-11-06T01:39:30.532Z,100676.00
2022-11-06T01:41:57.173Z,100678.72
2022-11-06T01:44:35.768Z,100673.56
2022-11-06T01:47:04.844Z,100668.38
2022-11-06T01:49:37.391Z,100674.63
2022-11-06T01:52:10.463Z,100663.25
2022-11-06T01:54:40.147Z,100671.19
2022-11-06T01:57:07.521Z,100665.06
2022-11-06T01:59:37.434Z,100673.03
2022-11-06T02:02:05.081Z,100670.41
2022-11-06T02:04:38.608Z,100665.13
2022-11-06T02:07:05.414Z,100661.56
2022-11-06T02:09:34.522Z,100658.81
2022-11-06T02:12:11.978Z,100653.56
2022-11-06T02:14:44.277Z,100650.00
2022-11-06T02:17:22.052Z,100662.38
2022-11-06T02:20:18.302Z,100660.66
2022-11-06T02:22:53.707Z,100665.97
2022-11-06T02:25:35.587Z,100667.84
2022-11-06T02:28:11.114Z,100662.63
2022-11-06T02:30:44.723Z,100660.91
2022-11-06T02:33:22.766Z,100653.94
2022-11-06T02:35:56.476Z,100646.94
2022-11-06T02:38:28.336Z,100649.59
2022-11-06T02:40:58.927Z,100647.00
2022-11-06T02:43:32.591Z,100643.50
2022-11-06T02:46:21.611Z,100655.81
2022-11-06T02:48:53.328Z,100653.16
2022-11-06T02:51:25.626Z,100646.97
2022-11-06T02:53:54.681Z,100653.97
2022-11-06T02:56:27.170Z,100654.88
2022-11-06T02:59:02.185Z,100654.88
2022-11-06T03:01:37.712Z,100645.22
2022-11-06T03:04:13.373Z,100650.53
2022-11-06T03:06:45.490Z,100647.88
2022-11-06T03:09:20.472Z,100648.78
2022-11-06T03:12:00.483Z,100647.03
2022-11-06T03:14:44.539Z,100638.25
2022-11-06T03:17:35.636Z,100632.97
2022-11-06T03:20:23.765Z,100629.47
2022-11-06T03:23:27.498Z,100626.03
2022-11-06T03:26:15.367Z,100615.47
2022-11-06T03:29:02.895Z,100614.59
2022-11-06T03:31:37.746Z,100611.09
2022-11-06T03:34:11.308Z,100618.13
2022-11-06T03:36:42.598Z,100605.84
2022-11-06T03:39:15.206Z,100612.03
2022-11-06T03:41:45.918Z,100607.63
2022-11-06T03:44:17.906Z,100607.59
2022-11-06T03:46:49.636Z,100619.97
2022-11-06T03:49:22.924Z,100604.13
2022-11-06T03:51:56.104Z,100619.03
2022-11-06T03:54:31.613Z,100602.31
2022-11-06T03:57:04.314Z,100607.56
2022-11-06T03:59:35.719Z,100603.09
2022-11-06T04:02:03.545Z,100603.09
2022-11-06T04:04:38.000Z,100603.03
2022-11-06T04:07:24.581Z,100603.81
2022-11-06T04:10:17.899Z,100598.50
2022-11-06T04:13:06.118Z,100598.41
2022-11-06T04:15:38.676Z,100597.47
2022-11-06T04:18:13.362Z,100606.25
2022-11-06T04:21:08.217Z,100612.47
2022-11-06T04:24:36.244Z,100604.56
2022-11-06T04:27:23.678Z,100602.66
2022-11-06T04:30:20.174Z,100611.19
2022-11-06T04:33:01.713Z,100604.84
2022-11-06T04:35:45.800Z,100610.88
2022-11-06T04:38:18.281Z,100601.03
2022-11-06T04:41:22.252Z,100595.53
2022-11-06T04:43:58.759Z,100585.66
2022-11-06T04:46:44.094Z,100586.50
2022-11-06T04:49:12.787Z,100599.53
2022-11-06T04:51:40.904Z,100594.19
2022-11-06T04:54:10.195Z,100594.09
2022-11-06T04:56:42.864Z,100589.63
2022-11-06T04:59:15.896Z,100588.66
2022-11-06T05:01:42.466Z,100595.63
2022-11-06T05:04:09.613Z,100594.72
2022-11-06T05:06:36.196Z,100595.53
2022-11-06T05:09:03.204Z,100591.13
2022-11-06T05:11:29.708Z,100590.16
2022-11-06T05:13:56.614Z,100592.81
2022-11-06T05:16:23.186Z,100591.09
2022-11-06T05:18:49.880Z,100599.81
2022-11-06T05:21:35.326Z,100598.88
2022-11-06T05:24:02.007Z,100592.78
2022-11-06T05:26:28.591Z,100589.31
2022-11-06T05:28:55.119Z,100602.59
2022-11-06T05:31:21.773Z,100600.03
2022-11-06T05:33:49.534Z,100583.47
2022-11-06T05:36:16.471Z,100583.53
2022-11-06T05:38:43.196Z,100581.00
2022-11-06T05:41:09.717Z,100584.63
2022-11-06T05:43:36.344Z,100593.50
2022-11-06T05:46:03.594Z,100580.34
2022-11-06T05:48:30.144Z,100575.97
2022-11-06T05:51:04.814Z,100575.94
2022-11-06T05:53:34.124Z,100576.81
2022-11-06T05:56:01.058Z,100576.00
2022-11-06T05:58:28.115Z,100582.25
2022-11-06T06:00:55.991Z,100577.16
2022-11-06T06:03:22.936Z,100583.44
2022-11-06T06:05:50.083Z,100580.91
2022-11-06T06:08:16.614Z,100581.03
2022-11-06T06:10:45.116Z,100580.25
2022-11-06T06:13:12.119Z,100567.13
2022-11-06T06:15:39.651Z,100563.66
2022-11-06T06:18:06.791Z,100561.94
2022-11-06T06:20:34.373Z,100550.53
2022-11-06T06:23:01.006Z,100543.53
2022-11-06T06:25:28.791Z,100549.72
2022-11-06T06:27:56.458Z,100552.41
2022-11-06T06:30:24.165Z,100549.88
2022-11-06T06:32:51.498Z,100558.72
2022-11-06T06:35:18.154Z,100555.25
2022-11-06T06:38:00.042Z,100561.47
2022-11-06T06:40:27.454Z,100562.38
2022-11-06T06:42:58.008Z,100571.25
2022-11-06T06:45:26.550Z,100572.19
2022-11-06T06:47:53.171Z,100572.31
2022-11-06T06:50:20.758Z,100567.97
2022-11-06T06:52:50.048Z,100566.28
2022-11-06T06:55:17.002Z,100573.44
2022-11-06T06:57:43.602Z,100560.28
2022-11-06T07:00:10.955Z,100565.59
2022-11-06T07:02:37.472Z,100559.50
2022-11-06T07:05:04.224Z,100561.34
2022-11-06T07:07:32.456Z,100561.38
2022-11-06T07:09:59.018Z,100555.31
2022-11-06T07:12:25.770Z,100551.91
2022-11-06T07:14:52.280Z,100559.13
2022-11-06T07:17:18.823Z,100554.91
2022-11-06T07:19:45.420Z,100544.38
2022-11-06T07:22:13.214Z,100533.78
2022-11-06T07:24:39.863Z,100544.28
2022-11-06T07:27:06.541Z,100534.44
2022-11-06T07:29:33.120Z,100539.63
2022-11-06T07:31:59.911Z,100542.13
2022-11-06T07:34:26.948Z,100552.56
2022-11-06T07:36:56.398Z,100554.25
2022-11-06T07:39:25.063Z,100557.69
2022-11-06T07:41:51.630Z,100557.63
2022-11-06T07:44:18.293Z,100566.34
2022-11-06T07:46:44.828Z,100557.47
2022-11-06T07:49:11.668Z,100560.97
2022-11-06T07:51:38.362Z,100564.41
2022-11-06T07:54:04.996Z,100554.66
2022-11-06T07:56:31.551Z,100550.22
2022-11-06T07:58:58.225Z,100544.91
2022-11-06T08:01:24.832Z,100545.81
2022-11-06T08:03:51.515Z,100545.84
2022-11-06T08:06:18.055Z,100537.16
2022-11-06T08:08:44.901Z,100543.34
2022-11-06T08:11:12.136Z,100551.31
2022-11-06T08:13:39.581Z,100540.84
2022-11-06T08:16:14.242Z,100541.78
2022-11-06T08:18:41.577Z,100540.09
2022-11-06T08:21:08.236Z,100546.31
2022-11-06T08:23:35.572Z,100543.69
2022-11-06T08:26:04.948Z,100541.97
2022-11-06T08:28:31.646Z,100537.63
2022-11-06T08:30:58.167Z,100526.19
2022-11-06T08:33:24.874Z,100520.09
2022-11-06T08:35:51.444Z,100521.06
2022-11-06T08:38:18.213Z,100523.81
2022-11-06T08:40:49.339Z,100534.44
2022-11-06T08:43:19.111Z,100531.03
2022-11-06T08:45:45.809Z,100533.78
2022-11-06T08:48:12.504Z,100537.44
2022-11-06T08:50:40.184Z,100533.16
2022-11-06T08:53:07.274Z,100531.56
2022-11-06T08:55:36.764Z,100530.81
2022-11-06T08:58:04.659Z,100524.75
2022-11-06T09:00:31.426Z,100520.47
2022-11-06T09:02:59.597Z,100520.63
2022-11-06T09:05:26.868Z,100511.91
2022-11-06T09:07:54.173Z,100510.28
2022-11-06T09:10:20.736Z,100503.25
2022-11-06T09:12:48.459Z,100511.28
2022-11-06T09:15:15.551Z,100515.78
2022-11-06T09:17:47.262Z,100515.00
2022-11-06T09:20:15.031Z,100502.78
2022-11-06T09:22:42.115Z,100509.94
2022-11-06T09:25:10.559Z,100513.56
2022-11-06T09:27:47.846Z,100503.09
2022-11-06T09:30:17.038Z,100503.22
2022-11-06T09:32:54.804Z,100506.88
2022-11-06T09:35:23.401Z,100499.00
2022-11-06T09:37:50.210Z,100496.38
2022-11-06T09:40:29.241Z,100486.72
2022-11-06T09:43:08.100Z,100491.16
2022-11-06T09:45:39.714Z,100498.28
2022-11-06T09:48:24.089Z,100508.97
2022-11-06T09:51:00.659Z,100502.00
2022-11-06T09:53:35.157Z,100508.34
2022-11-06T09:56:04.541Z,100506.78
2022-11-06T09:58:38.635Z,100498.09
2022-11-06T10:01:24.471Z,100480.47
2022-11-06T10:03:58.906Z,100478.78
2022-11-06T10:06:27.580Z,100472.56
2022-11-06T10:09:02.458Z,100467.22
2022-11-06T10:11:50.132Z,100460.97
2022-11-06T10:14:40.723Z,100466.19
2022-11-06T10:17:32.341Z,100462.59
2022-11-06T10:20:27.172Z,100455.50
2022-11-06T10:23:05.258Z,100461.66
2022-11-06T10:25:54.630Z,100456.31
2022-11-06T10:28:42.547Z,100453.66
2022-11-06T10:31:22.213Z,100465.06
2022-11-06T10:34:10.653Z,100449.16
2022-11-06T10:36:49.905Z,100454.47
2022-11-06T10:39:23.535Z,100443.88
2022-11-06T10:41:54.657Z,100443.88
2022-11-06T10:44:27.879Z,100450.91
2022-11-06T10:47:03.612Z,100439.44
2022-11-06T10:49:30.124Z,100450.03
2022-11-06T10:52:07.610Z,100441.22
2022-11-06T10:54:49.570Z,100438.56
2022-11-06T10:57:24.961Z,100434.16
2022-11-06T10:59:55.318Z,100446.53
2022-11-06T11:02:25.267Z,100439.47
2022-11-06T11:04:57.575Z,100441.22
2022-11-06T11:07:29.301Z,100440.34
2022-11-06T11:09:55.874Z,100433.28
2022-11-06T11:12:31.126Z,100430.63
2022-11-06T11:15:16.169Z,100429.78
2022-11-06T11:17:43.341Z,100424.53
2022-11-06T11:20:33.625Z,100414.81
2022-11-06T11:23:22.876Z,100417.47
2022-11-06T11:25:52.627Z,100406.84
2022-11-06T11:28:36.302Z,100387.38
2022-11-06T11:31:10.370Z,100384.75
2022-11-06T11:33:38.939Z,100382.94
2022-11-06T11:36:07.413Z,100363.56
2022-11-06T11:38:40.341Z,100365.38
2022-11-06T11:41:11.580Z,100357.44
2022-11-06T11:43:38.429Z,100361.88
2022-11-06T11:46:10.757Z,100351.28
2022-11-06T11:48:53.787Z,100354.81
2022-11-06T11:51:29.294Z,100358.38
2022-11-06T11:54:02.959Z,100353.06
2022-11-06T11:56:58.176Z,100354.88
2022-11-06T11:59:32.383Z,100346.91
2022-11-06T12:02:12.748Z,100351.34
2022-11-06T12:04:45.438Z,100333.69
2022-11-06T12:07:22.456Z,100325.75
2022-11-06T12:09:49.008Z,100320.44
2022-11-06T12:12:34.305Z,100317.81
2022-11-06T12:15:03.645Z,100319.56
2022-11-06T12:17:31.712Z,100315.16
2022-11-06T12:20:00.568Z,100316.06
2022-11-06T12:22:33.504Z,100316.09
2022-11-06T12:25:09.544Z,100306.38
2022-11-06T12:27:43.940Z,100305.47
2022-11-06T12:30:20.777Z,100305.50
2022-11-06T12:33:03.698Z,100304.59
2022-11-06T12:35:39.584Z,100300.19
2022-11-06T12:38:44.267Z,100298.44
2022-11-06T12:41:17.002Z,100291.38
2022-11-06T12:43:46.715Z,100286.94
2022-11-06T12:46:32.126Z,100294.91
2022-11-06T12:49:17.659Z,100292.25
2022-11-06T12:52:09.209Z,100279.00
2022-11-06T12:54:51.144Z,100270.16
2022-11-06T12:57:26.910Z,100268.38
2022-11-06T13:00:14.315Z,100271.03
2022-11-06T13:03:02.330Z,100261.31
2022-11-06T13:05:47.773Z,100271.91
2022-11-06T13:08:44.375Z,100262.19
2022-11-06T13:11:36.907Z,100248.94
2022-11-06T13:14:25.006Z,100243.59
2022-11-06T13:17:08.911Z,100230.31
2022-11-06T13:19:58.527Z,100238.28
2022-11-06T13:22:46.169Z,100225.91
2022-11-06T13:25:46.933Z,100223.28
2022-11-06T13:28:16.555Z,100220.59
2022-11-06T13:30:44.226Z,100217.97
2022-11-06T13:33:10.598Z,100220.63
2022-11-06T13:35:41.419Z,100202.94
2022-11-06T13:38:16.689Z,100210.00
2022-11-06T13:40:53.596Z,100208.22
2022-11-06T13:43:26.257Z,100200.28
2022-11-06T13:46:16.068Z,100196.75
2022-11-06T13:49:05.964Z,100199.41
2022-11-06T13:51:46.426Z,100200.28
2022-11-06T13:54:39.804Z,100204.72
2022-11-06T13:57:15.569Z,100201.16
2022-11-06T14:00:05.539Z,100177.31
2022-11-06T14:02:57.579Z,100166.66
2022-11-06T14:05:49.599Z,100170.19
2022-11-06T14:08:30.161Z,100161.34
2022-11-06T14:10:58.723Z,100167.53
2022-11-06T14:13:36.355Z,100163.13
2022-11-06T14:16:14.316Z,100154.28
2022-11-06T14:18:41.891Z,100150.78
2022-11-06T14:21:49.184Z,100149.88
2022-11-06T14:24:34.136Z,100146.34
2022-11-06T14:27:11.039Z,100135.75
2022-11-06T14:29:42.681Z,100139.28
2022-11-06T14:32:21.515Z,100131.34
2022-11-06T14:34:48.423Z,100129.56
2022-11-06T14:37:18.021Z,100126.03
2022-11-06T14:39:56.937Z,100111.88
2022-11-06T14:42:27.083Z,100111.00
2022-11-06T14:44:55.773Z,100110.16
2022-11-06T14:47:39.631Z,100105.72
2022-11-06T14:50:34.672Z,100105.72
2022-11-06T14:53:03.848Z,100100.41
2022-11-06T14:55:55.998Z,100098.66
2022-11-06T14:58:25.279Z,100089.78
2022-11-06T15:00:58.406Z,100089.78
2022-11-06T15:03:30.163Z,100096.00
2022-11-06T15:06:06.391Z,100103.97
2022-11-06T15:08:45.201Z,100092.47
2022-11-06T15:11:29.885Z,100092.47
2022-11-06T15:14:02.039Z,100089.81
2022-11-06T15:16:44.476Z,100088.94
2022-11-06T15:19:21.422Z,100090.72
2022-11-06T15:22:12.806Z,100097.75
2022-11-06T15:24:45.621Z,100096.88
2022-11-06T15:27:23.514Z,100096.91
2022-11-06T15:29:55.801Z,100111.03
2022-11-06T15:32:25.863Z,100092.47
2022-11-06T15:34:58.546Z,100091.59
2022-11-06T15:37:37.582Z,100108.41
2022-11-06T15:40:09.757Z,100103.09
2022-11-06T15:42:39.013Z,100104.00
2022-11-06T15:45:20.654Z,100113.69
2022-11-06T15:48:01.270Z,100110.16
2022-11-06T15:50:30.427Z,100111.03
2022-11-06T15:53:12.128Z,100111.91
2022-11-06T15:55:45.430Z,100104.81
2022-11-06T15:58:30.837Z,100110.97
2022-11-06T16:01:00.072Z,100115.38
2022-11-06T16:03:31.552Z,100114.47
2022-11-06T16:06:02.613Z,100111.81
2022-11-06T16:08:31.264Z,100109.13
2022-11-06T16:10:58.955Z,100105.56
2022-11-06T16:13:29.072Z,100102.88
2022-11-06T16:15:59.259Z,100111.69
2022-11-06T16:18:27.652Z,100108.16
2022-11-06T16:21:20.532Z,100097.53
2022-11-06T16:23:57.444Z,100081.66
2022-11-06T16:26:36.357Z,100074.56
2022-11-06T16:29:18.247Z,100067.50
2022-11-06T16:31:48.655Z,100050.72
2022-11-06T16:34:32.992Z,100045.44
2022-11-06T16:37:29.700Z,100041.00
2022-11-06T16:40:00.194Z,100044.53
2022-11-06T16:42:38.724Z,100053.31
2022-11-06T16:45:08.003Z,100053.31
2022-11-06T16:47:34.679Z,100055.94
2022-11-06T16:50:02.668Z,100060.31
2022-11-06T16:52:35.529Z,100058.53
2022-11-06T16:55:03.546Z,100061.16
2022-11-06T16:57:46.530Z,100057.63
2022-11-06T17:00:19.256Z,100058.47
2022-11-06T17:02:52.899Z,100053.13
2022-11-06T17:05:22.785Z,100055.72
2022-11-06T17:08:05.817Z,100067.09
2022-11-06T17:10:39.116Z,100069.69
2022-11-06T17:13:19.938Z,100074.06
2022-11-06T17:16:07.112Z,100065.22
2022-11-06T17:18:36.356Z,100072.25
2022-11-06T17:21:05.995Z,100076.63
2022-11-06T17:23:34.906Z,100063.41
2022-11-06T17:26:06.300Z,100055.50
2022-11-06T17:28:32.839Z,100049.31
2022-11-06T17:30:59.462Z,100051.09
2022-11-06T17:33:26.015Z,100046.66
2022-11-06T17:35:52.724Z,100050.19
2022-11-06T17:38:19.311Z,100042.25
2022-11-06T17:40:45.910Z,100038.72
2022-11-06T17:43:13.277Z,100034.28
2022-11-06T17:45:42.974Z,100034.28
2022-11-06T17:48:09.714Z,100032.53
2022-11-06T17:50:56.266Z,100030.78
2022-11-06T17:53:22.859Z,100035.19
2022-11-06T17:55:49.444Z,100040.47
2022-11-06T17:58:16.426Z,100038.72
2022-11-06T18:00:43.493Z,100027.28
2022-11-06T18:03:17.989Z,100021.16
2022-11-06T18:05:45.397Z,100010.59
2022-11-06T18:08:13.406Z,100010.56
2022-11-06T18:10:40.895Z,99993.84
2022-11-06T18:13:07.695Z,100005.28
2022-11-06T18:15:35.532Z,100001.75
2022-11-06T18:18:02.456Z,100005.28
2022-11-06T18:20:29.153Z,99999.13
2022-11-06T18:22:55.703Z,100006.16
2022-11-06T18:25:22.220Z,100002.66
2022-11-06T18:27:48.746Z,99990.31
2022-11-06T18:30:15.606Z,99984.16
2022-11-06T18:32:42.311Z,99981.53
2022-11-06T18:35:11.465Z,99969.22
2022-11-06T18:37:38.253Z,99964.78
2022-11-06T18:40:05.618Z,99949.84
2022-11-06T18:42:32.231Z,99947.19
2022-11-06T18:44:58.923Z,99934.84
2022-11-06T18:47:25.538Z,99943.66
2022-11-06T18:49:52.187Z,99942.78
2022-11-06T18:52:38.034Z,99927.81
2022-11-06T18:55:05.886Z,99921.69
2022-11-06T18:57:32.491Z,99916.41
2022-11-06T18:59:59.154Z,99916.41
2022-11-06T19:02:25.903Z,99927.88
2022-11-06T19:04:53.015Z,99916.44
2022-11-06T19:07:20.062Z,99930.53
2022-11-06T19:09:46.697Z,99949.03
2022-11-06T19:12:13.443Z,99944.66
2022-11-06T19:14:40.313Z,99944.66
2022-11-06T19:17:07.118Z,99940.34
2022-11-06T19:19:33.887Z,99928.03
2022-11-06T19:22:00.402Z,99906.88
2022-11-06T19:24:27.221Z,99910.41
2022-11-06T19:26:53.780Z,99911.31
2022-11-06T19:29:20.631Z,99915.72
2022-11-06T19:31:47.158Z,99913.06
2022-11-06T19:34:17.185Z,99929.81
2022-11-06T19:36:43.841Z,99919.25
2022-11-06T19:39:11.910Z,99912.22
2022-11-06T19:41:39.308Z,99909.59
2022-11-06T19:44:09.353Z,99906.97
2022-11-06T19:46:37.165Z,99915.78
2022-11-06T19:49:05.621Z,99915.78
2022-11-06T19:51:33.397Z,99918.41
2022-11-06T19:54:01.777Z,99915.78
2022-11-06T19:56:28.737Z,99910.50
2022-11-06T19:58:55.720Z,99905.19
2022-11-06T20:01:22.583Z,99910.50
2022-11-06T20:03:50.113Z,99915.81
2022-11-06T20:06:17.384Z,99908.75
2022-11-06T20:08:47.958Z,99899.94
2022-11-06T20:11:15.816Z,99909.63
2022-11-06T20:13:43.313Z,99910.50
2022-11-06T20:16:19.859Z,99924.63
2022-11-06T20:18:54.632Z,99925.50
2022-11-06T20:21:23.536Z,99927.25
2022-11-06T20:23:50.091Z,99922.00
2022-11-06T20:26:19.200Z,99925.50
2022-11-06T20:28:48.609Z,99931.69
2022-11-06T20:31:19.529Z,99922.91
2022-11-06T20:33:47.140Z,99936.97
2022-11-06T20:36:23.933Z,99943.16
2022-11-06T20:38:57.278Z,99928.16
2022-11-06T20:41:24.842Z,99943.13
2022-11-06T20:43:52.493Z,99930.81
2022-11-06T20:46:21.951Z,99925.50
2022-11-06T20:48:49.593Z,99910.50
2022-11-06T20:51:21.982Z,99906.13
2022-11-06T20:53:50.310Z,99901.69
2022-11-06T20:56:20.500Z,99862.03
2022-11-06T20:58:48.404Z,99865.53
2022-11-06T21:01:20.204Z,99882.31
2022-11-06T21:03:49.478Z,99886.69
2022-11-06T21:06:18.683Z,99898.16
2022-11-06T21:08:46.331Z,99916.66
2022-11-06T21:11:17.149Z,99908.69
2022-11-06T21:13:48.263Z,99897.25
2022-11-06T21:16:21.460Z,99884.91
2022-11-06T21:18:51.625Z,99897.25
2022-11-06T21:21:22.620Z,99883.13
2022-11-06T21:23:50.835Z,99891.94
2022-11-06T21:26:20.413Z,99898.06
2022-11-06T21:28:47.290Z,99908.63
2022-11-06T21:31:17.258Z,99905.91
2022-11-06T21:33:47.450Z,99899.75
2022-11-06T21:36:17.238Z,99897.94
2022-11-06T21:38:44.412Z,99887.34
2022-11-06T21:41:14.258Z,99880.25
2022-11-06T21:43:41.657Z,99890.78
2022-11-06T21:46:11.236Z,99884.59
2022-11-06T21:48:47.310Z,99884.59
2022-11-06T21:51:23.224Z,99887.25
2022-11-06T21:54:09.988Z,99893.44
2022-11-06T21:56:38.955Z,99887.31
2022-11-06T21:59:08.727Z,99878.53
2022-11-06T22:01:39.555Z,99871.50
2022-11-06T22:04:06.672Z,99869.75
2022-11-06T22:06:33.487Z,99872.44
2022-11-06T22:09:03.203Z,99877.72
2022-11-06T22:11:35.987Z,99882.09
2022-11-06T22:14:10.090Z,99878.59
2022-11-06T22:16:39.146Z,99877.75
2022-11-06T22:19:07.264Z,99884.78
2022-11-06T22:21:36.609Z,99878.59
2022-11-06T22:24:03.629Z,99878.59
2022-11-06T22:26:32.963Z,99882.09
2022-11-06T22:29:01.905Z,99877.72
2022-11-06T22:31:29.307Z,99880.34
2022-11-06T22:33:56.181Z,99875.06
2022-11-06T22:36:24.007Z,99869.78
2022-11-06T22:38:51.130Z,99889.19
2022-11-06T22:41:23.730Z,99878.59
2022-11-06T22:43:51.239Z,99871.56
2022-11-06T22:46:23.061Z,99876.03
2022-11-06T22:48:51.118Z,99865.47
2022-11-06T22:51:24.338Z,99874.28
2022-11-06T22:53:51.830Z,99867.19
2022-11-06T22:56:19.776Z,99861.91
2022-11-06T22:58:46.799Z,99857.50
2022-11-06T23:01:14.003Z,99867.25
2022-11-06T23:03:40.894Z,99876.03
2022-11-06T23:06:09.699Z,99884.00
2022-11-06T23:08:39.732Z,99889.28
2022-11-06T23:11:10.982Z,99890.13
2022-11-06T23:13:38.278Z,99889.28
2022-11-06T23:16:11.942Z,99889.28
2022-11-06T23:18:39.390Z,99889.28
2022-11-06T23:21:17.034Z,99894.56
2022-11-06T23:23:44.696Z,99889.28
2022-11-06T23:26:13.743Z,99892.78
2022-11-06T23:28:40.387Z,99890.13
2022-11-06T23:31:08.682Z,99892.78
2022-11-06T23:33:35.488Z,99900.72
2022-11-06T23:36:07.130Z,99897.19
2022-11-06T23:38:33.753Z,99896.31
2022-11-06T23:41:26.853Z,99896.31
2022-11-06T23:43:54.485Z,99889.28
2022-11-06T23:46:22.640Z,99901.59
2022-11-06T23:48:49.153Z,99902.50
2022-11-06T23:51:15.691Z,99901.59
2022-11-06T23:53:42.370Z,99904.25
2022-11-06T23:56:11.164Z,99896.31
2022-11-06T23:58:38.837Z,99906.88
